sensor_id;sensor_type;location;lat;lon;timestamp;P1;durP1;ratioP1;P2;durP2;ratioP2
80201;SDS011;69521;54.454;9.928;2024-02-16T00:00:43;29.65;;;13.43;;
80201;SDS011;69521;54.454;9.928;2024-02-16T00:03:09;29.25;;;14.18;;
80201;SDS011;69521;54.454;9.928;2024-02-16T00:05:35;33.70;;;14.68;;
80201;SDS011;69521;54.454;9.928;2024-02-16T00:08:01;32.70;;;14.10;;
80201;SDS011;69521;54.454;9.928;2024-02-16T00:10:28;29.27;;;14.23;;
80201;SDS011;69521;54.454;9.928;2024-02-16T00:12:53;30.83;;;14.48;;
80201;SDS011;69521;54.454;9.928;2024-02-16T00:15:18;31.75;;;15.13;;
80201;SDS011;69521;54.454;9.928;2024-02-16T00:17:44;32.78;;;14.05;;
80201;SDS011;69521;54.454;9.928;2024-02-16T00:20:09;25.88;;;13.98;;
80201;SDS011;69521;54.454;9.928;2024-02-16T00:22:37;31.67;;;14.70;;
80201;SDS011;69521;54.454;9.928;2024-02-16T00:25:03;29.00;;;15.07;;
80201;SDS011;69521;54.454;9.928;2024-02-16T00:27:28;30.35;;;14.50;;
80201;SDS011;69521;54.454;9.928;2024-02-16T00:29:54;28.60;;;14.05;;
80201;SDS011;69521;54.454;9.928;2024-02-16T00:32:19;27.58;;;14.73;;
80201;SDS011;69521;54.454;9.928;2024-02-16T00:34:45;29.10;;;14.43;;
80201;SDS011;69521;54.454;9.928;2024-02-16T00:37:10;31.52;;;14.57;;
80201;SDS011;69521;54.454;9.928;2024-02-16T00:39:37;29.35;;;14.05;;
80201;SDS011;69521;54.454;9.928;2024-02-16T00:42:06;24.08;;;12.20;;
80201;SDS011;69521;54.454;9.928;2024-02-16T00:44:31;30.88;;;15.02;;
80201;SDS011;69521;54.454;9.928;2024-02-16T00:46:56;25.48;;;12.68;;
80201;SDS011;69521;54.454;9.928;2024-02-16T00:49:22;31.20;;;13.38;;
80201;SDS011;69521;54.454;9.928;2024-02-16T00:51:47;28.60;;;13.63;;
80201;SDS011;69521;54.454;9.928;2024-02-16T00:54:13;31.80;;;14.13;;
80201;SDS011;69521;54.454;9.928;2024-02-16T00:56:38;28.40;;;15.18;;
80201;SDS011;69521;54.454;9.928;2024-02-16T00:59:04;31.13;;;14.07;;
80201;SDS011;69521;54.454;9.928;2024-02-16T01:01:30;28.10;;;14.50;;
80201;SDS011;69521;54.454;9.928;2024-02-16T01:03:55;34.47;;;14.25;;
80201;SDS011;69521;54.454;9.928;2024-02-16T01:06:21;26.08;;;13.70;;
80201;SDS011;69521;54.454;9.928;2024-02-16T01:08:46;29.58;;;13.30;;
80201;SDS011;69521;54.454;9.928;2024-02-16T01:11:11;29.30;;;14.30;;
80201;SDS011;69521;54.454;9.928;2024-02-16T01:13:37;27.17;;;13.80;;
80201;SDS011;69521;54.454;9.928;2024-02-16T01:16:03;25.80;;;14.13;;
80201;SDS011;69521;54.454;9.928;2024-02-16T01:18:29;27.73;;;12.23;;
80201;SDS011;69521;54.454;9.928;2024-02-16T01:20:55;24.17;;;12.73;;
80201;SDS011;69521;54.454;9.928;2024-02-16T01:23:20;26.80;;;13.35;;
80201;SDS011;69521;54.454;9.928;2024-02-16T01:25:46;25.52;;;12.73;;
80201;SDS011;69521;54.454;9.928;2024-02-16T01:28:12;26.23;;;12.85;;
80201;SDS011;69521;54.454;9.928;2024-02-16T01:30:38;25.27;;;12.65;;
80201;SDS011;69521;54.454;9.928;2024-02-16T01:33:04;24.40;;;13.10;;
80201;SDS011;69521;54.454;9.928;2024-02-16T01:35:31;23.58;;;11.70;;
80201;SDS011;69521;54.454;9.928;2024-02-16T01:37:56;20.50;;;12.48;;
80201;SDS011;69521;54.454;9.928;2024-02-16T01:40:21;19.53;;;11.37;;
80201;SDS011;69521;54.454;9.928;2024-02-16T01:42:47;23.97;;;12.00;;
80201;SDS011;69521;54.454;9.928;2024-02-16T01:45:13;23.50;;;11.50;;
80201;SDS011;69521;54.454;9.928;2024-02-16T01:47:38;22.77;;;12.15;;
80201;SDS011;69521;54.454;9.928;2024-02-16T01:50:04;20.13;;;11.55;;
80201;SDS011;69521;54.454;9.928;2024-02-16T01:52:30;21.85;;;11.73;;
80201;SDS011;69521;54.454;9.928;2024-02-16T01:54:57;19.95;;;11.75;;
80201;SDS011;69521;54.454;9.928;2024-02-16T01:57:23;25.17;;;11.10;;
80201;SDS011;69521;54.454;9.928;2024-02-16T01:59:49;18.75;;;10.93;;
80201;SDS011;69521;54.454;9.928;2024-02-16T02:02:15;16.73;;;10.50;;
80201;SDS011;69521;54.454;9.928;2024-02-16T02:04:40;19.35;;;10.70;;
80201;SDS011;69521;54.454;9.928;2024-02-16T02:07:12;15.33;;;9.47;;
80201;SDS011;69521;54.454;9.928;2024-02-16T02:09:39;17.20;;;9.35;;
80201;SDS011;69521;54.454;9.928;2024-02-16T02:12:04;19.45;;;8.88;;
80201;SDS011;69521;54.454;9.928;2024-02-16T02:14:29;16.95;;;9.60;;
80201;SDS011;69521;54.454;9.928;2024-02-16T02:16:55;19.15;;;9.23;;
80201;SDS011;69521;54.454;9.928;2024-02-16T02:19:20;15.30;;;8.00;;
80201;SDS011;69521;54.454;9.928;2024-02-16T02:21:45;13.25;;;7.57;;
80201;SDS011;69521;54.454;9.928;2024-02-16T02:24:11;17.37;;;8.87;;
80201;SDS011;69521;54.454;9.928;2024-02-16T02:26:36;16.27;;;8.32;;
80201;SDS011;69521;54.454;9.928;2024-02-16T02:29:02;12.90;;;8.10;;
80201;SDS011;69521;54.454;9.928;2024-02-16T02:31:28;15.95;;;8.05;;
80201;SDS011;69521;54.454;9.928;2024-02-16T02:33:53;12.05;;;7.22;;
80201;SDS011;69521;54.454;9.928;2024-02-16T02:36:19;12.95;;;7.93;;
80201;SDS011;69521;54.454;9.928;2024-02-16T02:38:44;12.00;;;7.43;;
80201;SDS011;69521;54.454;9.928;2024-02-16T02:41:09;12.87;;;7.23;;
80201;SDS011;69521;54.454;9.928;2024-02-16T02:43:35;11.00;;;6.53;;
80201;SDS011;69521;54.454;9.928;2024-02-16T02:46:00;14.35;;;7.22;;
80201;SDS011;69521;54.454;9.928;2024-02-16T02:48:26;14.55;;;7.13;;
80201;SDS011;69521;54.454;9.928;2024-02-16T02:50:51;11.97;;;7.20;;
80201;SDS011;69521;54.454;9.928;2024-02-16T02:53:16;14.60;;;6.45;;
80201;SDS011;69521;54.454;9.928;2024-02-16T02:55:43;11.68;;;6.80;;
80201;SDS011;69521;54.454;9.928;2024-02-16T02:58:08;10.63;;;6.55;;
80201;SDS011;69521;54.454;9.928;2024-02-16T03:00:33;13.27;;;6.70;;
80201;SDS011;69521;54.454;9.928;2024-02-16T03:03:00;12.07;;;6.03;;
80201;SDS011;69521;54.454;9.928;2024-02-16T03:05:26;9.80;;;6.53;;
80201;SDS011;69521;54.454;9.928;2024-02-16T03:07:52;11.13;;;5.88;;
80201;SDS011;69521;54.454;9.928;2024-02-16T03:10:17;13.07;;;6.00;;
80201;SDS011;69521;54.454;9.928;2024-02-16T03:15:14;9.00;;;5.65;;
80201;SDS011;69521;54.454;9.928;2024-02-16T03:17:40;10.73;;;5.38;;
80201;SDS011;69521;54.454;9.928;2024-02-16T03:20:05;8.85;;;4.68;;
80201;SDS011;69521;54.454;9.928;2024-02-16T03:22:32;7.57;;;5.10;;
80201;SDS011;69521;54.454;9.928;2024-02-16T03:24:58;9.07;;;5.00;;
80201;SDS011;69521;54.454;9.928;2024-02-16T03:27:23;8.70;;;4.50;;
80201;SDS011;69521;54.454;9.928;2024-02-16T03:29:48;9.70;;;5.43;;
80201;SDS011;69521;54.454;9.928;2024-02-16T03:32:13;11.02;;;5.03;;
80201;SDS011;69521;54.454;9.928;2024-02-16T03:34:39;9.18;;;4.82;;
80201;SDS011;69521;54.454;9.928;2024-02-16T03:37:04;10.13;;;4.75;;
80201;SDS011;69521;54.454;9.928;2024-02-16T03:39:29;7.03;;;4.67;;
80201;SDS011;69521;54.454;9.928;2024-02-16T03:41:55;8.73;;;4.80;;
80201;SDS011;69521;54.454;9.928;2024-02-16T03:44:21;8.48;;;4.78;;
80201;SDS011;69521;54.454;9.928;2024-02-16T03:46:46;8.77;;;4.20;;
80201;SDS011;69521;54.454;9.928;2024-02-16T03:49:12;10.27;;;4.45;;
80201;SDS011;69521;54.454;9.928;2024-02-16T03:51:37;8.87;;;3.80;;
80201;SDS011;69521;54.454;9.928;2024-02-16T03:54:02;5.65;;;3.88;;
80201;SDS011;69521;54.454;9.928;2024-02-16T03:56:29;9.65;;;3.95;;
80201;SDS011;69521;54.454;9.928;2024-02-16T03:58:55;4.88;;;3.45;;
80201;SDS011;69521;54.454;9.928;2024-02-16T04:01:20;6.85;;;3.30;;
80201;SDS011;69521;54.454;9.928;2024-02-16T04:03:45;4.77;;;3.73;;
80201;SDS011;69521;54.454;9.928;2024-02-16T04:06:11;10.00;;;3.70;;
80201;SDS011;69521;54.454;9.928;2024-02-16T04:08:36;6.13;;;3.92;;
80201;SDS011;69521;54.454;9.928;2024-02-16T04:11:01;4.65;;;3.08;;
80201;SDS011;69521;54.454;9.928;2024-02-16T04:13:27;8.60;;;3.63;;
80201;SDS011;69521;54.454;9.928;2024-02-16T04:15:53;6.80;;;3.97;;
80201;SDS011;69521;54.454;9.928;2024-02-16T04:18:19;7.07;;;3.75;;
80201;SDS011;69521;54.454;9.928;2024-02-16T04:20:44;27.25;;;4.38;;
80201;SDS011;69521;54.454;9.928;2024-02-16T04:23:09;6.28;;;3.60;;
80201;SDS011;69521;54.454;9.928;2024-02-16T04:25:35;6.82;;;3.20;;
80201;SDS011;69521;54.454;9.928;2024-02-16T04:28:00;8.50;;;3.58;;
80201;SDS011;69521;54.454;9.928;2024-02-16T04:30:25;8.60;;;3.50;;
80201;SDS011;69521;54.454;9.928;2024-02-16T04:32:51;10.10;;;3.78;;
80201;SDS011;69521;54.454;9.928;2024-02-16T04:35:16;7.60;;;3.33;;
80201;SDS011;69521;54.454;9.928;2024-02-16T04:37:41;7.03;;;3.33;;
80201;SDS011;69521;54.454;9.928;2024-02-16T04:40:07;4.30;;;2.92;;
80201;SDS011;69521;54.454;9.928;2024-02-16T04:42:33;4.75;;;2.88;;
80201;SDS011;69521;54.454;9.928;2024-02-16T04:44:59;5.70;;;3.05;;
80201;SDS011;69521;54.454;9.928;2024-02-16T04:47:27;6.15;;;3.53;;
80201;SDS011;69521;54.454;9.928;2024-02-16T04:49:53;5.93;;;3.42;;
80201;SDS011;69521;54.454;9.928;2024-02-16T04:52:18;6.18;;;2.88;;
80201;SDS011;69521;54.454;9.928;2024-02-16T04:54:43;8.90;;;3.78;;
80201;SDS011;69521;54.454;9.928;2024-02-16T04:57:09;4.70;;;2.80;;
80201;SDS011;69521;54.454;9.928;2024-02-16T04:59:34;3.75;;;2.70;;
80201;SDS011;69521;54.454;9.928;2024-02-16T05:02:00;6.70;;;3.20;;
80201;SDS011;69521;54.454;9.928;2024-02-16T05:04:25;6.60;;;3.20;;
80201;SDS011;69521;54.454;9.928;2024-02-16T05:06:50;7.03;;;3.03;;
80201;SDS011;69521;54.454;9.928;2024-02-16T05:09:17;5.40;;;2.95;;
80201;SDS011;69521;54.454;9.928;2024-02-16T05:11:43;7.82;;;3.00;;
80201;SDS011;69521;54.454;9.928;2024-02-16T05:14:10;6.95;;;3.05;;
80201;SDS011;69521;54.454;9.928;2024-02-16T05:16:37;6.93;;;3.28;;
80201;SDS011;69521;54.454;9.928;2024-02-16T05:19:02;4.97;;;3.00;;
80201;SDS011;69521;54.454;9.928;2024-02-16T05:21:28;7.38;;;3.22;;
80201;SDS011;69521;54.454;9.928;2024-02-16T05:23:53;6.95;;;3.03;;
80201;SDS011;69521;54.454;9.928;2024-02-16T05:26:20;8.68;;;3.85;;
80201;SDS011;69521;54.454;9.928;2024-02-16T05:28:45;5.97;;;3.35;;
80201;SDS011;69521;54.454;9.928;2024-02-16T05:31:15;4.57;;;2.60;;
80201;SDS011;69521;54.454;9.928;2024-02-16T05:33:49;9.32;;;2.88;;
80201;SDS011;69521;54.454;9.928;2024-02-16T05:36:19;7.32;;;2.92;;
80201;SDS011;69521;54.454;9.928;2024-02-16T05:38:46;5.80;;;3.25;;
80201;SDS011;69521;54.454;9.928;2024-02-16T05:41:12;5.85;;;2.95;;
80201;SDS011;69521;54.454;9.928;2024-02-16T05:43:37;9.95;;;3.28;;
80201;SDS011;69521;54.454;9.928;2024-02-16T05:46:03;6.30;;;3.22;;
80201;SDS011;69521;54.454;9.928;2024-02-16T05:48:31;7.50;;;3.08;;
80201;SDS011;69521;54.454;9.928;2024-02-16T05:51:02;5.20;;;3.08;;
80201;SDS011;69521;54.454;9.928;2024-02-16T05:53:30;6.75;;;2.80;;
80201;SDS011;69521;54.454;9.928;2024-02-16T05:55:56;5.80;;;3.30;;
80201;SDS011;69521;54.454;9.928;2024-02-16T05:58:21;10.73;;;3.17;;
80201;SDS011;69521;54.454;9.928;2024-02-16T06:00:48;5.88;;;2.72;;
80201;SDS011;69521;54.454;9.928;2024-02-16T06:03:13;5.68;;;2.92;;
80201;SDS011;69521;54.454;9.928;2024-02-16T06:05:39;6.82;;;2.88;;
80201;SDS011;69521;54.454;9.928;2024-02-16T06:08:05;6.35;;;2.83;;
80201;SDS011;69521;54.454;9.928;2024-02-16T06:10:32;10.25;;;3.15;;
80201;SDS011;69521;54.454;9.928;2024-02-16T06:12:57;6.90;;;3.22;;
80201;SDS011;69521;54.454;9.928;2024-02-16T06:15:23;7.43;;;3.08;;
80201;SDS011;69521;54.454;9.928;2024-02-16T06:17:48;5.83;;;2.60;;
80201;SDS011;69521;54.454;9.928;2024-02-16T06:20:15;6.75;;;2.80;;
80201;SDS011;69521;54.454;9.928;2024-02-16T06:22:41;7.72;;;2.80;;
80201;SDS011;69521;54.454;9.928;2024-02-16T06:25:07;4.93;;;3.20;;
80201;SDS011;69521;54.454;9.928;2024-02-16T06:27:32;4.80;;;2.50;;
80201;SDS011;69521;54.454;9.928;2024-02-16T06:29:58;4.78;;;2.45;;
80201;SDS011;69521;54.454;9.928;2024-02-16T06:32:23;5.50;;;2.37;;
80201;SDS011;69521;54.454;9.928;2024-02-16T06:34:48;4.40;;;2.88;;
80201;SDS011;69521;54.454;9.928;2024-02-16T06:37:14;8.33;;;3.00;;
80201;SDS011;69521;54.454;9.928;2024-02-16T06:39:40;4.07;;;2.92;;
80201;SDS011;69521;54.454;9.928;2024-02-16T06:42:05;6.35;;;2.10;;
80201;SDS011;69521;54.454;9.928;2024-02-16T06:44:31;4.80;;;2.72;;
80201;SDS011;69521;54.454;9.928;2024-02-16T06:46:56;3.67;;;2.33;;
80201;SDS011;69521;54.454;9.928;2024-02-16T06:49:22;7.75;;;2.40;;
80201;SDS011;69521;54.454;9.928;2024-02-16T06:51:47;5.03;;;2.27;;
80201;SDS011;69521;54.454;9.928;2024-02-16T06:54:12;7.00;;;2.58;;
80201;SDS011;69521;54.454;9.928;2024-02-16T06:56:38;4.90;;;2.35;;
80201;SDS011;69521;54.454;9.928;2024-02-16T06:59:03;6.60;;;2.80;;
80201;SDS011;69521;54.454;9.928;2024-02-16T07:01:28;3.38;;;2.30;;
80201;SDS011;69521;54.454;9.928;2024-02-16T07:03:54;5.90;;;3.22;;
80201;SDS011;69521;54.454;9.928;2024-02-16T07:06:19;5.13;;;2.40;;
80201;SDS011;69521;54.454;9.928;2024-02-16T07:08:44;6.22;;;2.47;;
80201;SDS011;69521;54.454;9.928;2024-02-16T07:11:10;4.60;;;2.50;;
80201;SDS011;69521;54.454;9.928;2024-02-16T07:13:39;4.85;;;2.17;;
80201;SDS011;69521;54.454;9.928;2024-02-16T07:16:05;4.80;;;2.17;;
80201;SDS011;69521;54.454;9.928;2024-02-16T07:18:33;5.50;;;1.98;;
80201;SDS011;69521;54.454;9.928;2024-02-16T07:20:59;5.45;;;2.80;;
80201;SDS011;69521;54.454;9.928;2024-02-16T07:23:24;7.00;;;2.97;;
80201;SDS011;69521;54.454;9.928;2024-02-16T07:25:51;5.95;;;2.10;;
80201;SDS011;69521;54.454;9.928;2024-02-16T07:28:20;4.78;;;2.10;;
80201;SDS011;69521;54.454;9.928;2024-02-16T07:30:45;6.60;;;2.75;;
80201;SDS011;69521;54.454;9.928;2024-02-16T07:33:10;3.20;;;2.53;;
80201;SDS011;69521;54.454;9.928;2024-02-16T07:35:36;3.97;;;2.33;;
80201;SDS011;69521;54.454;9.928;2024-02-16T07:38:03;5.18;;;2.17;;
80201;SDS011;69521;54.454;9.928;2024-02-16T07:40:28;4.68;;;1.90;;
80201;SDS011;69521;54.454;9.928;2024-02-16T07:42:54;6.13;;;1.92;;
80201;SDS011;69521;54.454;9.928;2024-02-16T07:45:19;6.20;;;2.20;;
80201;SDS011;69521;54.454;9.928;2024-02-16T07:47:45;4.10;;;1.80;;
80201;SDS011;69521;54.454;9.928;2024-02-16T07:50:11;6.80;;;2.20;;
80201;SDS011;69521;54.454;9.928;2024-02-16T07:52:37;5.47;;;2.40;;
80201;SDS011;69521;54.454;9.928;2024-02-16T07:55:04;4.25;;;2.25;;
80201;SDS011;69521;54.454;9.928;2024-02-16T07:57:30;7.80;;;2.45;;
80201;SDS011;69521;54.454;9.928;2024-02-16T07:59:56;6.72;;;2.15;;
80201;SDS011;69521;54.454;9.928;2024-02-16T08:02:21;3.92;;;2.13;;
80201;SDS011;69521;54.454;9.928;2024-02-16T08:04:47;3.45;;;2.08;;
80201;SDS011;69521;54.454;9.928;2024-02-16T08:07:13;4.60;;;1.98;;
80201;SDS011;69521;54.454;9.928;2024-02-16T08:09:38;6.68;;;2.10;;
80201;SDS011;69521;54.454;9.928;2024-02-16T08:12:04;5.95;;;2.00;;
80201;SDS011;69521;54.454;9.928;2024-02-16T08:14:30;9.65;;;2.15;;
80201;SDS011;69521;54.454;9.928;2024-02-16T08:16:57;4.00;;;1.98;;
80201;SDS011;69521;54.454;9.928;2024-02-16T08:19:23;3.88;;;1.75;;
80201;SDS011;69521;54.454;9.928;2024-02-16T08:21:48;8.77;;;2.40;;
80201;SDS011;69521;54.454;9.928;2024-02-16T08:24:13;4.80;;;1.63;;
80201;SDS011;69521;54.454;9.928;2024-02-16T08:26:39;6.65;;;2.00;;
80201;SDS011;69521;54.454;9.928;2024-02-16T08:29:04;3.17;;;2.15;;
80201;SDS011;69521;54.454;9.928;2024-02-16T08:31:30;4.28;;;1.98;;
80201;SDS011;69521;54.454;9.928;2024-02-16T08:33:55;5.20;;;1.77;;
80201;SDS011;69521;54.454;9.928;2024-02-16T08:36:20;5.72;;;1.70;;
80201;SDS011;69521;54.454;9.928;2024-02-16T08:38:52;4.90;;;1.60;;
80201;SDS011;69521;54.454;9.928;2024-02-16T08:41:18;7.88;;;2.58;;
80201;SDS011;69521;54.454;9.928;2024-02-16T08:43:44;3.50;;;1.52;;
80201;SDS011;69521;54.454;9.928;2024-02-16T08:46:09;3.53;;;1.33;;
80201;SDS011;69521;54.454;9.928;2024-02-16T08:48:35;4.10;;;1.52;;
80201;SDS011;69521;54.454;9.928;2024-02-16T08:51:00;3.53;;;1.77;;
80201;SDS011;69521;54.454;9.928;2024-02-16T08:53:26;5.40;;;1.60;;
80201;SDS011;69521;54.454;9.928;2024-02-16T08:55:51;4.65;;;1.75;;
80201;SDS011;69521;54.454;9.928;2024-02-16T08:58:16;4.15;;;1.50;;
80201;SDS011;69521;54.454;9.928;2024-02-16T09:00:43;3.50;;;1.55;;
80201;SDS011;69521;54.454;9.928;2024-02-16T09:03:09;3.67;;;1.45;;
80201;SDS011;69521;54.454;9.928;2024-02-16T09:05:34;2.22;;;1.20;;
80201;SDS011;69521;54.454;9.928;2024-02-16T09:07:59;2.90;;;1.20;;
80201;SDS011;69521;54.454;9.928;2024-02-16T09:10:25;5.65;;;1.77;;
80201;SDS011;69521;54.454;9.928;2024-02-16T09:12:50;4.43;;;2.30;;
80201;SDS011;69521;54.454;9.928;2024-02-16T09:15:17;3.97;;;1.65;;
80201;SDS011;69521;54.454;9.928;2024-02-16T09:17:43;3.45;;;1.55;;
80201;SDS011;69521;54.454;9.928;2024-02-16T09:20:08;5.97;;;1.50;;
80201;SDS011;69521;54.454;9.928;2024-02-16T09:22:34;3.13;;;1.38;;
80201;SDS011;69521;54.454;9.928;2024-02-16T09:25:01;4.18;;;2.28;;
80201;SDS011;69521;54.454;9.928;2024-02-16T09:27:26;3.58;;;1.52;;
80201;SDS011;69521;54.454;9.928;2024-02-16T09:29:52;6.78;;;1.85;;
80201;SDS011;69521;54.454;9.928;2024-02-16T09:32:17;4.15;;;1.52;;
80201;SDS011;69521;54.454;9.928;2024-02-16T09:34:43;5.25;;;1.95;;
80201;SDS011;69521;54.454;9.928;2024-02-16T09:37:08;3.25;;;1.40;;
80201;SDS011;69521;54.454;9.928;2024-02-16T09:39:33;3.25;;;1.60;;
80201;SDS011;69521;54.454;9.928;2024-02-16T09:41:59;3.67;;;1.60;;
80201;SDS011;69521;54.454;9.928;2024-02-16T09:44:25;3.97;;;1.63;;
80201;SDS011;69521;54.454;9.928;2024-02-16T09:46:51;5.20;;;1.70;;
80201;SDS011;69521;54.454;9.928;2024-02-16T09:49:19;2.97;;;2.15;;
80201;SDS011;69521;54.454;9.928;2024-02-16T09:51:44;3.33;;;1.80;;
80201;SDS011;69521;54.454;9.928;2024-02-16T09:54:10;3.33;;;1.92;;
80201;SDS011;69521;54.454;9.928;2024-02-16T09:56:35;4.33;;;1.60;;
80201;SDS011;69521;54.454;9.928;2024-02-16T09:59:00;4.45;;;1.77;;
80201;SDS011;69521;54.454;9.928;2024-02-16T10:01:26;5.20;;;1.80;;
80201;SDS011;69521;54.454;9.928;2024-02-16T10:03:51;3.85;;;1.70;;
80201;SDS011;69521;54.454;9.928;2024-02-16T10:06:17;3.30;;;1.42;;
80201;SDS011;69521;54.454;9.928;2024-02-16T10:08:49;3.20;;;1.48;;
80201;SDS011;69521;54.454;9.928;2024-02-16T10:11:15;3.70;;;1.52;;
80201;SDS011;69521;54.454;9.928;2024-02-16T10:13:41;2.30;;;1.08;;
80201;SDS011;69521;54.454;9.928;2024-02-16T10:16:07;5.55;;;1.33;;
80201;SDS011;69521;54.454;9.928;2024-02-16T10:18:34;6.95;;;1.67;;
80201;SDS011;69521;54.454;9.928;2024-02-16T10:21:03;2.85;;;1.10;;
80201;SDS011;69521;54.454;9.928;2024-02-16T10:23:29;3.63;;;1.20;;
80201;SDS011;69521;54.454;9.928;2024-02-16T10:25:55;2.92;;;1.40;;
80201;SDS011;69521;54.454;9.928;2024-02-16T10:28:21;2.63;;;1.40;;
80201;SDS011;69521;54.454;9.928;2024-02-16T10:30:52;2.92;;;1.15;;
80201;SDS011;69521;54.454;9.928;2024-02-16T10:33:28;2.28;;;1.38;;
80201;SDS011;69521;54.454;9.928;2024-02-16T10:35:55;3.72;;;1.65;;
80201;SDS011;69521;54.454;9.928;2024-02-16T10:38:22;5.32;;;1.88;;
80201;SDS011;69521;54.454;9.928;2024-02-16T10:40:48;2.33;;;1.45;;
80201;SDS011;69521;54.454;9.928;2024-02-16T10:43:16;4.03;;;1.90;;
80201;SDS011;69521;54.454;9.928;2024-02-16T10:45:43;5.40;;;1.60;;
80201;SDS011;69521;54.454;9.928;2024-02-16T10:48:10;3.42;;;1.85;;
80201;SDS011;69521;54.454;9.928;2024-02-16T10:50:36;2.67;;;1.60;;
80201;SDS011;69521;54.454;9.928;2024-02-16T10:53:09;9.00;;;2.10;;
80201;SDS011;69521;54.454;9.928;2024-02-16T10:55:43;7.10;;;1.80;;
80201;SDS011;69521;54.454;9.928;2024-02-16T10:58:10;4.60;;;2.00;;
80201;SDS011;69521;54.454;9.928;2024-02-16T11:00:36;3.83;;;1.70;;
80201;SDS011;69521;54.454;9.928;2024-02-16T11:03:02;4.30;;;1.85;;
80201;SDS011;69521;54.454;9.928;2024-02-16T11:05:32;3.45;;;2.05;;
80201;SDS011;69521;54.454;9.928;2024-02-16T11:08:01;5.15;;;2.05;;
80201;SDS011;69521;54.454;9.928;2024-02-16T11:10:27;2.90;;;1.88;;
80201;SDS011;69521;54.454;9.928;2024-02-16T11:12:53;6.13;;;2.30;;
80201;SDS011;69521;54.454;9.928;2024-02-16T11:15:27;3.20;;;1.77;;
80201;SDS011;69521;54.454;9.928;2024-02-16T11:17:55;5.72;;;1.77;;
80201;SDS011;69521;54.454;9.928;2024-02-16T11:20:24;4.72;;;1.73;;
80201;SDS011;69521;54.454;9.928;2024-02-16T11:22:51;3.75;;;1.63;;
80201;SDS011;69521;54.454;9.928;2024-02-16T11:25:17;2.35;;;1.60;;
80201;SDS011;69521;54.454;9.928;2024-02-16T11:27:42;3.43;;;1.90;;
80201;SDS011;69521;54.454;9.928;2024-02-16T11:30:10;3.92;;;1.95;;
80201;SDS011;69521;54.454;9.928;2024-02-16T11:32:36;3.65;;;1.60;;
80201;SDS011;69521;54.454;9.928;2024-02-16T11:35:04;3.83;;;1.85;;
80201;SDS011;69521;54.454;9.928;2024-02-16T11:37:31;4.93;;;1.70;;
80201;SDS011;69521;54.454;9.928;2024-02-16T11:39:57;3.72;;;1.63;;
80201;SDS011;69521;54.454;9.928;2024-02-16T11:42:22;3.88;;;1.60;;
80201;SDS011;69521;54.454;9.928;2024-02-16T11:44:51;3.15;;;1.65;;
80201;SDS011;69521;54.454;9.928;2024-02-16T11:47:21;3.90;;;1.80;;
80201;SDS011;69521;54.454;9.928;2024-02-16T11:52:45;5.65;;;2.00;;
80201;SDS011;69521;54.454;9.928;2024-02-16T11:55:11;4.50;;;1.83;;
80201;SDS011;69521;54.454;9.928;2024-02-16T11:57:37;3.85;;;1.75;;
80201;SDS011;69521;54.454;9.928;2024-02-16T12:00:03;2.70;;;1.90;;
80201;SDS011;69521;54.454;9.928;2024-02-16T12:02:33;4.03;;;1.83;;
80201;SDS011;69521;54.454;9.928;2024-02-16T12:05:00;6.82;;;2.20;;
80201;SDS011;69521;54.454;9.928;2024-02-16T12:07:26;4.95;;;1.90;;
80201;SDS011;69521;54.454;9.928;2024-02-16T12:09:58;5.30;;;1.90;;
80201;SDS011;69521;54.454;9.928;2024-02-16T12:12:25;4.68;;;1.83;;
80201;SDS011;69521;54.454;9.928;2024-02-16T12:14:50;3.40;;;1.73;;
80201;SDS011;69521;54.454;9.928;2024-02-16T12:17:17;6.75;;;1.88;;
80201;SDS011;69521;54.454;9.928;2024-02-16T12:19:45;6.33;;;2.27;;
80201;SDS011;69521;54.454;9.928;2024-02-16T12:22:11;3.88;;;1.92;;
80201;SDS011;69521;54.454;9.928;2024-02-16T12:24:41;3.95;;;1.60;;
80201;SDS011;69521;54.454;9.928;2024-02-16T12:27:07;4.53;;;1.87;;
80201;SDS011;69521;54.454;9.928;2024-02-16T12:29:32;4.00;;;1.90;;
80201;SDS011;69521;54.454;9.928;2024-02-16T12:31:57;8.38;;;1.90;;
80201;SDS011;69521;54.454;9.928;2024-02-16T12:34:23;5.43;;;2.20;;
80201;SDS011;69521;54.454;9.928;2024-02-16T12:36:50;7.00;;;2.10;;
80201;SDS011;69521;54.454;9.928;2024-02-16T12:39:16;4.30;;;2.22;;
80201;SDS011;69521;54.454;9.928;2024-02-16T12:41:41;5.97;;;2.10;;
80201;SDS011;69521;54.454;9.928;2024-02-16T12:44:08;4.28;;;2.20;;
80201;SDS011;69521;54.454;9.928;2024-02-16T12:46:33;5.47;;;2.50;;
80201;SDS011;69521;54.454;9.928;2024-02-16T12:48:59;3.53;;;2.28;;
80201;SDS011;69521;54.454;9.928;2024-02-16T12:51:24;6.82;;;2.50;;
80201;SDS011;69521;54.454;9.928;2024-02-16T12:53:50;7.65;;;3.15;;
80201;SDS011;69521;54.454;9.928;2024-02-16T12:56:15;4.78;;;2.38;;
80201;SDS011;69521;54.454;9.928;2024-02-16T12:58:41;3.95;;;2.13;;
80201;SDS011;69521;54.454;9.928;2024-02-16T13:01:06;4.30;;;2.20;;
80201;SDS011;69521;54.454;9.928;2024-02-16T13:03:35;4.95;;;2.25;;
80201;SDS011;69521;54.454;9.928;2024-02-16T13:06:01;5.10;;;2.83;;
80201;SDS011;69521;54.454;9.928;2024-02-16T13:08:28;5.75;;;2.80;;
80201;SDS011;69521;54.454;9.928;2024-02-16T13:10:54;6.38;;;2.78;;
80201;SDS011;69521;54.454;9.928;2024-02-16T13:13:20;5.57;;;2.45;;
80201;SDS011;69521;54.454;9.928;2024-02-16T13:15:45;7.07;;;2.92;;
80201;SDS011;69521;54.454;9.928;2024-02-16T13:18:12;5.30;;;2.88;;
80201;SDS011;69521;54.454;9.928;2024-02-16T13:20:38;4.72;;;2.30;;
80201;SDS011;69521;54.454;9.928;2024-02-16T13:23:03;6.60;;;3.00;;
80201;SDS011;69521;54.454;9.928;2024-02-16T13:25:28;6.40;;;2.75;;
80201;SDS011;69521;54.454;9.928;2024-02-16T13:27:54;6.23;;;3.20;;
80201;SDS011;69521;54.454;9.928;2024-02-16T13:30:19;5.13;;;2.88;;
80201;SDS011;69521;54.454;9.928;2024-02-16T13:32:44;5.13;;;3.10;;
80201;SDS011;69521;54.454;9.928;2024-02-16T13:35:10;5.10;;;2.88;;
80201;SDS011;69521;54.454;9.928;2024-02-16T13:37:35;7.03;;;3.55;;
80201;SDS011;69521;54.454;9.928;2024-02-16T13:40:02;5.60;;;3.22;;
80201;SDS011;69521;54.454;9.928;2024-02-16T13:42:31;6.45;;;3.08;;
80201;SDS011;69521;54.454;9.928;2024-02-16T13:44:57;7.85;;;3.35;;
80201;SDS011;69521;54.454;9.928;2024-02-16T13:47:23;7.10;;;3.53;;
80201;SDS011;69521;54.454;9.928;2024-02-16T13:49:48;7.72;;;3.15;;
80201;SDS011;69521;54.454;9.928;2024-02-16T13:52:15;6.82;;;2.97;;
80201;SDS011;69521;54.454;9.928;2024-02-16T13:54:41;11.73;;;3.10;;
80201;SDS011;69521;54.454;9.928;2024-02-16T13:57:06;5.25;;;3.30;;
80201;SDS011;69521;54.454;9.928;2024-02-16T13:59:31;5.57;;;3.50;;
80201;SDS011;69521;54.454;9.928;2024-02-16T14:01:58;8.45;;;3.30;;
80201;SDS011;69521;54.454;9.928;2024-02-16T14:04:24;6.38;;;3.70;;
80201;SDS011;69521;54.454;9.928;2024-02-16T14:06:51;9.10;;;3.75;;
80201;SDS011;69521;54.454;9.928;2024-02-16T14:09:17;9.27;;;3.50;;
80201;SDS011;69521;54.454;9.928;2024-02-16T14:11:44;7.13;;;3.63;;
80201;SDS011;69521;54.454;9.928;2024-02-16T14:14:10;7.10;;;3.50;;
80201;SDS011;69521;54.454;9.928;2024-02-16T14:16:37;7.80;;;4.63;;
80201;SDS011;69521;54.454;9.928;2024-02-16T14:19:03;8.70;;;4.03;;
80201;SDS011;69521;54.454;9.928;2024-02-16T14:21:28;7.22;;;3.95;;
80201;SDS011;69521;54.454;9.928;2024-02-16T14:23:54;8.70;;;4.10;;
80201;SDS011;69521;54.454;9.928;2024-02-16T14:26:19;6.55;;;4.20;;
80201;SDS011;69521;54.454;9.928;2024-02-16T14:28:45;8.20;;;4.78;;
80201;SDS011;69521;54.454;9.928;2024-02-16T14:31:11;6.95;;;4.80;;
80201;SDS011;69521;54.454;9.928;2024-02-16T14:33:39;8.07;;;5.20;;
80201;SDS011;69521;54.454;9.928;2024-02-16T14:36:04;8.70;;;5.07;;
80201;SDS011;69521;54.454;9.928;2024-02-16T14:38:30;7.38;;;5.60;;
80201;SDS011;69521;54.454;9.928;2024-02-16T14:40:55;7.40;;;5.05;;